createdAt,value
2022-12-05T00:02:21.359Z,101020.31
2022-12-05T00:09:44.747Z,101017.50
2022-12-05T00:13:32.244Z,101008.03
2022-12-05T00:16:37.367Z,101026.31
2022-12-05T00:20:09.121Z,101017.56
2022-12-05T00:23:05.110Z,101012.38
2022-12-05T00:26:06.928Z,101018.50
2022-12-05T00:29:16.681Z,101030.66
2022-12-05T00:35:29.453Z,101024.44
2022-12-05T00:44:56.953Z,101013.06
2022-12-05T00:47:40.286Z,101015.66
2022-12-05T00:50:17.005Z,101014.72
2022-12-05T00:53:06.162Z,101013.06
2022-12-05T00:56:28.154Z,101017.47
2022-12-05T00:59:32.410Z,101021.06
2022-12-05T01:02:21.839Z,101016.63
2022-12-05T01:05:04.531Z,101009.59
2022-12-05T01:07:53.065Z,101000.03
2022-12-05T01:10:55.355Z,101002.56
2022-12-05T01:13:36.715Z,100996.44
2022-12-05T01:16:14.443Z,101006.03
2022-12-05T01:18:41.494Z,100992.97
2022-12-05T01:21:40.781Z,100999.28
2022-12-05T01:24:43.289Z,100996.44
2022-12-05T01:27:27.436Z,100998.22
2022-12-05T01:29:58.843Z,101004.31
2022-12-05T01:32:26.578Z,100996.53
2022-12-05T01:34:54.792Z,101007.81
2022-12-05T01:37:22.579Z,100994.69
2022-12-05T01:39:52.474Z,100999.06
2022-12-05T01:42:23.238Z,100994.56
2022-12-05T01:45:05.921Z,101004.22
2022-12-05T01:47:40.218Z,100994.66
2022-12-05T01:50:10.134Z,101000.53
2022-12-05T01:52:42.343Z,100996.09
2022-12-05T01:55:13.490Z,100991.69
2022-12-05T01:58:01.351Z,100998.88
2022-12-05T02:00:37.340Z,100997.09
2022-12-05T02:03:20.955Z,100998.66
2022-12-05T02:06:01.999Z,100996.03
2022-12-05T02:13:19.642Z,100993.81
2022-12-05T02:16:51.682Z,100997.09
2022-12-05T02:23:49.560Z,100997.91
2022-12-05T02:27:42.781Z,100995.50
2022-12-05T02:30:39.150Z,100999.06
2022-12-05T02:33:24.206Z,100994.69
2022-12-05T02:36:10.564Z,100993.50
2022-12-05T02:39:40.879Z,100997.03
2022-12-05T02:42:43.607Z,100997.78
2022-12-05T02:45:22.911Z,101005.88
2022-12-05T02:48:06.595Z,101004.03
2022-12-05T02:51:37.778Z,101009.19
2022-12-05T02:54:04.201Z,100997.09
2022-12-05T02:57:01.585Z,100993.81
2022-12-05T02:59:39.749Z,100984.38
2022-12-05T03:02:28.882Z,100983.47
2022-12-05T03:05:33.290Z,100981.50
2022-12-05T03:08:14.814Z,100984.06
2022-12-05T03:10:54.603Z,100990.22
2022-12-05T03:13:52.730Z,100980.47
2022-12-05T03:16:27.421Z,100982.25
2022-12-05T03:19:07.451Z,100973.53
2022-12-05T03:21:42.421Z,100967.63
2022-12-05T03:24:21.554Z,100977.22
2022-12-05T03:27:17.072Z,100970.00
2022-12-05T03:30:06.551Z,100969.22
2022-12-05T03:33:26.599Z,100971.81
2022-12-05T03:36:26.848Z,100976.31
2022-12-05T03:39:20.434Z,100965.81
2022-12-05T03:42:34.234Z,100963.19
2022-12-05T03:45:22.440Z,100974.56
2022-12-05T03:48:28.880Z,100972.69
2022-12-05T03:51:27.887Z,100977.91
2022-12-05T03:55:12.461Z,100975.31
2022-12-05T03:59:33.685Z,100972.44
2022-12-05T04:02:24.636Z,100971.69
2022-12-05T04:05:12.652Z,100965.53
2022-12-05T04:08:04.379Z,100969.97
2022-12-05T04:10:50.216Z,100969.00
2022-12-05T04:13:21.963Z,100969.81
2022-12-05T04:16:22.231Z,100971.50
2022-12-05T04:19:19.665Z,100963.72
2022-12-05T04:21:52.880Z,100966.34
2022-12-05T04:24:42.812Z,100959.16
2022-12-05T04:27:40.831Z,100963.84
2022-12-05T04:30:13.482Z,100969.00
2022-12-05T04:33:00.349Z,100967.63
2022-12-05T04:36:00.987Z,100966.38
2022-12-05T04:38:50.283Z,100969.94
2022-12-05T04:41:26.552Z,100962.22
2022-12-05T04:43:54.559Z,100965.88
2022-12-05T04:46:22.495Z,100968.69
2022-12-05T04:48:53.007Z,100969.63
2022-12-05T04:51:21.206Z,100975.81
2022-12-05T04:53:52.430Z,100974.78
2022-12-05T04:56:19.657Z,100971.31
2022-12-05T04:58:46.411Z,100970.56
2022-12-05T05:01:31.102Z,100967.84
2022-12-05T05:04:13.413Z,100967.84
2022-12-05T05:06:43.935Z,100965.41
2022-12-05T05:09:17.040Z,100965.53
2022-12-05T05:11:44.354Z,100968.34
2022-12-05T05:14:11.838Z,100962.16
2022-12-05T05:16:41.432Z,100968.16
2022-12-05T05:19:12.401Z,100969.94
2022-12-05T05:21:49.747Z,100966.34
2022-12-05T05:24:26.058Z,100965.59
2022-12-05T05:26:57.254Z,100966.34
2022-12-05T05:29:30.452Z,100958.56
2022-12-05T05:31:57.622Z,100966.41
2022-12-05T05:34:31.993Z,100956.78
2022-12-05T05:36:59.233Z,100964.75
2022-12-05T05:39:36.948Z,100964.50
2022-12-05T05:42:08.270Z,100965.25
2022-12-05T05:44:35.506Z,100960.16
2022-12-05T05:47:05.792Z,100970.75
2022-12-05T05:49:33.496Z,100977.09
2022-12-05T05:52:03.474Z,100965.84
2022-12-05T05:54:33.455Z,100968.38
2022-12-05T05:57:06.917Z,100961.41
2022-12-05T05:59:39.755Z,100970.13
2022-12-05T06:02:13.540Z,100971.84
2022-12-05T06:04:40.532Z,100967.59
2022-12-05T06:07:07.531Z,100970.97
2022-12-05T06:09:38.979Z,100973.59
2022-12-05T06:12:09.323Z,100974.47
2022-12-05T06:14:44.084Z,100974.75
2022-12-05T06:17:57.319Z,100971.91
2022-12-05T06:20:34.696Z,100981.50
2022-12-05T06:23:25.614Z,100986.47
2022-12-05T06:26:02.176Z,100974.63
2022-12-05T06:28:32.415Z,100980.56
2022-12-05T06:31:28.035Z,100988.16
2022-12-05T06:37:16.188Z,100990.97
2022-12-05T06:39:58.837Z,100982.06
2022-12-05T06:42:33.663Z,100991.03
2022-12-05T06:45:16.886Z,100988.22
2022-12-05T06:48:07.800Z,100996.78
2022-12-05T06:51:11.363Z,100995.41
2022-12-05T06:54:25.690Z,100996.34
2022-12-05T06:57:31.995Z,100994.56
2022-12-05T07:00:26.172Z,100994.47
2022-12-05T07:02:56.517Z,100994.41
2022-12-05T07:05:36.837Z,100999.06
2022-12-05T07:08:07.416Z,101009.34
2022-12-05T07:10:46.534Z,101001.47
2022-12-05T07:13:20.775Z,101009.50
2022-12-05T07:15:53.731Z,101001.47
2022-12-05T07:18:24.353Z,101012.00
2022-12-05T07:21:15.162Z,100994.44
2022-12-05T07:23:54.690Z,101001.41
2022-12-05T07:26:25.847Z,101004.00
2022-12-05T07:28:59.070Z,101007.41
2022-12-05T07:31:31.854Z,101005.00
2022-12-05T07:34:03.960Z,101018.06
2022-12-05T07:36:40.367Z,101021.34
2022-12-05T07:39:13.392Z,101022.47
2022-12-05T07:44:29.908Z,101016.50
2022-12-05T07:46:57.858Z,101029.25
2022-12-05T07:49:25.078Z,101022.22
2022-12-05T07:51:54.465Z,101017.13
2022-12-05T08:04:16.189Z,101016.09
2022-12-05T08:11:10.778Z,101021.34
2022-12-05T08:17:37.960Z,101018.41
2022-12-05T08:25:06.446Z,101022.66
2022-12-05T08:28:18.423Z,101023.81
2022-12-05T08:30:54.258Z,101031.00
2022-12-05T08:33:23.672Z,101022.66
2022-12-05T08:35:50.350Z,101032.22
2022-12-05T08:38:17.032Z,101023.31
2022-12-05T08:40:43.715Z,101019.81
2022-12-05T08:43:10.392Z,101022.09
2022-12-05T08:45:37.077Z,101023.75
2022-12-05T08:48:03.840Z,101019.44
2022-12-05T08:50:30.884Z,101024.44
2022-12-05T08:52:57.650Z,101030.72
2022-12-05T08:55:24.358Z,101027.16
2022-12-05T08:57:51.037Z,101027.16
2022-12-05T09:00:18.196Z,101026.97
2022-12-05T09:02:44.940Z,101020.06
2022-12-05T09:05:27.099Z,101025.31
2022-12-05T09:07:55.323Z,101024.63
2022-12-05T09:10:22.385Z,101017.50
2022-12-05T09:12:51.160Z,101016.50
2022-12-05T09:15:18.259Z,101022.75
2022-12-05T09:17:45.816Z,101015.81
2022-12-05T09:20:14.043Z,101016.84
2022-12-05T09:22:41.523Z,101020.13
2022-12-05T09:25:09.180Z,101014.63
2022-12-05T09:27:35.972Z,101011.25
2022-12-05T09:30:03.402Z,101011.34
2022-12-05T09:32:30.292Z,101004.38
2022-12-05T09:34:57.208Z,101005.78
2022-12-05T09:37:38.654Z,101009.09
2022-12-05T09:40:06.817Z,101005.75
2022-12-05T09:43:06.143Z,100999.59
2022-12-05T09:45:36.264Z,101001.44
2022-12-05T09:48:14.641Z,101000.53
2022-12-05T09:50:45.396Z,101003.13
2022-12-05T09:53:23.753Z,100997.91
2022-12-05T09:55:59.531Z,100992.47
2022-12-05T09:58:57.383Z,100993.19
2022-12-05T10:01:28.281Z,100997.44
2022-12-05T10:04:06.593Z,100995.56
2022-12-05T10:06:41.336Z,101000.75
2022-12-05T10:09:25.864Z,100994.81
2022-12-05T10:12:06.529Z,100997.13
2022-12-05T10:14:51.631Z,100991.94
2022-12-05T10:17:27.384Z,101005.06
2022-12-05T10:19:56.789Z,100995.31
2022-12-05T10:22:29.066Z,100996.94
2022-12-05T10:24:59.894Z,101001.47
2022-12-05T10:27:40.211Z,101001.28
2022-12-05T10:30:07.964Z,100995.09
2022-12-05T10:32:48.299Z,100988.84
2022-12-05T10:35:27.009Z,100994.09
2022-12-05T10:38:18.756Z,100987.75
2022-12-05T10:40:49.703Z,100984.97
2022-12-05T10:43:23.717Z,100989.50
2022-12-05T10:45:50.412Z,100980.97
2022-12-05T10:48:20.476Z,100981.84
2022-12-05T10:50:50.392Z,100983.50
2022-12-05T10:53:24.651Z,100986.91
2022-12-05T10:56:28.114Z,100994.75
2022-12-05T10:58:38.315Z,100991.16
2022-12-05T11:01:10.812Z,100977.06
2022-12-05T11:03:39.834Z,100980.41
2022-12-05T11:06:21.531Z,100968.31
2022-12-05T11:09:04.274Z,100979.19
2022-12-05T11:11:35.630Z,100979.97
2022-12-05T11:14:09.819Z,100970.31
2022-12-05T11:16:38.632Z,100976.41
2022-12-05T11:19:24.359Z,100974.47
2022-12-05T11:21:52.159Z,100976.19
2022-12-05T11:24:43.339Z,100972.66
2022-12-05T11:27:16.008Z,100968.47
2022-12-05T11:30:03.963Z,100973.50
2022-12-05T11:32:33.480Z,100960.31
2022-12-05T11:35:25.135Z,100961.00
2022-12-05T11:37:59.210Z,100954.78
2022-12-05T11:40:47.846Z,100958.59
2022-12-05T11:43:23.600Z,100965.41
2022-12-05T11:46:12.799Z,100961.75
2022-12-05T11:48:56.412Z,100961.72
2022-12-05T11:51:35.180Z,100960.72
2022-12-05T11:55:04.404Z,100947.56
2022-12-05T11:57:56.242Z,100949.28
2022-12-05T12:00:41.648Z,100959.84
2022-12-05T12:03:14.344Z,100950.72
2022-12-05T12:06:05.375Z,100952.31
2022-12-05T12:08:45.682Z,100956.75
2022-12-05T12:11:32.806Z,100955.03
2022-12-05T12:14:20.617Z,100962.75
2022-12-05T12:17:01.982Z,100952.00
2022-12-05T12:19:43.435Z,100945.81
2022-12-05T12:22:45.638Z,100940.75
2022-12-05T12:25:43.421Z,100940.81
2022-12-05T12:28:40.621Z,100943.22
2022-12-05T12:31:13.281Z,100937.00
2022-12-05T12:33:58.197Z,100931.13
2022-12-05T12:36:27.339Z,100928.41
2022-12-05T12:39:22.027Z,100928.47
2022-12-05T12:42:24.240Z,100935.56
2022-12-05T12:45:02.944Z,100930.31
2022-12-05T12:47:45.509Z,100934.72
2022-12-05T12:50:21.044Z,100936.34
2022-12-05T12:52:47.696Z,100936.44
2022-12-05T12:55:45.257Z,100933.66
2022-12-05T12:58:52.003Z,100927.66
2022-12-05T13:01:40.285Z,100933.59
2022-12-05T13:04:14.900Z,100927.31
2022-12-05T13:06:56.558Z,100930.91
2022-12-05T13:09:29.396Z,100928.13
2022-12-05T13:12:00.959Z,100926.97
2022-12-05T13:14:29.178Z,100924.19
2022-12-05T13:16:57.298Z,100925.34
2022-12-05T13:19:26.936Z,100926.16
2022-12-05T13:21:57.203Z,100922.72
2022-12-05T13:24:27.380Z,100925.34
2022-12-05T13:26:59.035Z,100925.59
2022-12-05T13:29:34.516Z,100921.22
2022-12-05T13:32:03.633Z,100915.84
2022-12-05T13:34:39.745Z,100915.69
2022-12-05T13:37:30.635Z,100919.94
2022-12-05T13:40:16.110Z,100912.38
2022-12-05T13:42:43.254Z,100911.31
2022-12-05T13:45:16.232Z,100926.91
2022-12-05T13:47:59.298Z,100923.22
2022-12-05T13:50:55.366Z,100913.47
2022-12-05T13:53:37.664Z,100924.16
2022-12-05T13:56:23.860Z,100931.09
2022-12-05T13:58:58.115Z,100924.00
2022-12-05T14:01:24.942Z,100927.44
2022-12-05T14:03:51.709Z,100927.28
2022-12-05T14:06:39.425Z,100920.34
2022-12-05T14:09:18.918Z,100920.28
2022-12-05T14:12:10.778Z,100922.97
2022-12-05T14:14:55.491Z,100925.47
2022-12-05T14:17:32.924Z,100930.69
2022-12-05T14:20:08.851Z,100923.56
2022-12-05T14:23:00.003Z,100934.22
2022-12-05T14:25:55.950Z,100928.94
2022-12-05T14:28:36.983Z,100930.88
2022-12-05T14:31:25.367Z,100932.53
2022-12-05T14:34:15.475Z,100938.63
2022-12-05T14:36:57.713Z,100935.94
2022-12-05T14:39:38.432Z,100932.41
2022-12-05T14:42:26.961Z,100934.16
2022-12-05T14:44:56.536Z,100924.41
2022-12-05T14:47:26.194Z,100926.13
2022-12-05T14:50:12.666Z,100926.19
2022-12-05T14:52:41.230Z,100924.41
2022-12-05T14:55:18.638Z,100921.78
2022-12-05T14:57:49.237Z,100919.97
2022-12-05T15:00:22.985Z,100917.28
2022-12-05T15:02:52.105Z,100923.50
2022-12-05T15:05:31.909Z,100929.78
2022-12-05T15:07:59.996Z,100928.75
2022-12-05T15:10:33.596Z,100919.03
2022-12-05T15:13:04.112Z,100921.59
2022-12-05T15:15:42.965Z,100919.91
2022-12-05T15:18:24.359Z,100919.25
2022-12-05T15:20:53.098Z,100920.25
2022-12-05T15:23:39.970Z,100925.41
2022-12-05T15:26:45.431Z,100916.56
2022-12-05T15:29:08.903Z,100934.94
2022-12-05T15:31:36.992Z,100932.59
2022-12-05T15:34:32.897Z,100936.06
2022-12-05T15:37:31.010Z,100929.00
2022-12-05T15:40:00.539Z,100935.88
2022-12-05T15:42:30.926Z,100929.78
2022-12-05T15:45:12.086Z,100934.94
2022-12-05T15:47:39.825Z,100935.78
2022-12-05T15:50:12.195Z,100940.13
2022-12-05T15:52:46.315Z,100935.03
2022-12-05T15:55:16.201Z,100941.91
2022-12-05T15:57:55.259Z,100939.34
2022-12-05T16:00:22.367Z,100930.78
2022-12-05T16:03:05.205Z,100938.03
2022-12-05T16:05:39.966Z,100932.00
2022-12-05T16:08:08.454Z,100940.00
2022-12-05T16:10:36.229Z,100934.91
2022-12-05T16:13:06.376Z,100938.34
2022-12-05T16:15:33.843Z,100932.34
2022-12-05T16:18:02.687Z,100930.56
2022-12-05T16:20:32.560Z,100931.50
2022-12-05T16:23:25.572Z,100936.81
2022-12-05T16:25:52.389Z,100932.34
2022-12-05T16:28:21.173Z,100927.22
2022-12-05T16:31:02.004Z,100929.06
2022-12-05T16:33:29.385Z,100927.56
2022-12-05T16:35:56.234Z,100930.97
2022-12-05T16:38:25.984Z,100931.69
2022-12-05T16:41:07.210Z,100931.69
2022-12-05T16:43:33.893Z,100935.22
2022-12-05T16:46:15.652Z,100933.47
2022-12-05T16:48:50.514Z,100933.53
2022-12-05T16:51:25.538Z,100927.38
2022-12-05T16:53:53.835Z,100931.69
2022-12-05T16:56:23.527Z,100929.94
2022-12-05T16:58:51.399Z,100921.22
2022-12-05T17:01:27.620Z,100923.72
2022-12-05T17:03:55.573Z,100928.69
2022-12-05T17:06:26.632Z,100926.00
2022-12-05T17:08:54.542Z,100922.63
2022-12-05T17:11:25.155Z,100921.75
2022-12-05T17:13:55.304Z,100915.59
2022-12-05T17:16:21.996Z,100924.47
2022-12-05T17:18:49.251Z,100920.94
2022-12-05T17:21:21.206Z,100928.78
2022-12-05T17:23:48.533Z,100923.50
2022-12-05T17:26:17.503Z,100921.72
2022-12-05T17:28:44.383Z,100927.75
2022-12-05T17:31:20.105Z,100923.56
2022-12-05T17:33:48.351Z,100919.19
2022-12-05T17:36:15.788Z,100919.88
2022-12-05T17:38:43.436Z,100923.50
2022-12-05T17:41:16.074Z,100914.53
2022-12-05T17:43:43.239Z,100911.75
2022-12-05T17:46:09.924Z,100917.63
2022-12-05T17:48:36.703Z,100918.44
2022-12-05T17:51:06.602Z,100917.78
2022-12-05T17:53:33.335Z,100923.94
2022-12-05T17:56:00.017Z,100920.56
2022-12-05T17:58:26.753Z,100918.91
2022-12-05T18:00:53.587Z,100918.00
2022-12-05T18:03:20.447Z,100917.16
2022-12-05T18:05:47.703Z,100923.22
2022-12-05T18:08:16.630Z,100924.28
2022-12-05T18:10:44.880Z,100922.66
2022-12-05T18:13:12.063Z,100921.75
2022-12-05T18:15:42.930Z,100917.34
2022-12-05T18:18:14.466Z,100921.59
2022-12-05T18:20:41.136Z,100922.44
2022-12-05T18:23:07.806Z,100917.22
2022-12-05T18:25:34.541Z,100914.59
2022-12-05T18:28:02.268Z,100917.25
2022-12-05T18:30:30.402Z,100912.91
2022-12-05T18:32:57.102Z,100922.66
2022-12-05T18:35:40.857Z,100915.59
2022-12-05T18:38:08.935Z,100925.25
2022-12-05T18:40:35.678Z,100919.03
2022-12-05T18:43:02.543Z,100917.34
2022-12-05T18:45:29.280Z,100927.75
2022-12-05T18:48:04.515Z,100931.16
2022-12-05T18:50:42.855Z,100925.81
2022-12-05T18:53:09.551Z,100925.06
2022-12-05T18:56:05.151Z,100931.13
2022-12-05T18:58:24.061Z,100931.16
2022-12-05T19:00:50.733Z,100935.47
2022-12-05T19:03:17.463Z,100930.22
2022-12-05T19:05:44.132Z,100932.78
2022-12-05T19:08:10.937Z,100931.88
2022-12-05T19:10:37.802Z,100931.09
2022-12-05T19:13:04.472Z,100938.03
2022-12-05T19:15:31.346Z,100938.97
2022-12-05T19:17:58.101Z,100929.25
2022-12-05T19:20:24.767Z,100931.88
2022-12-05T19:22:54.128Z,100931.94
2022-12-05T19:25:23.097Z,100938.16
2022-12-05T19:27:50.079Z,100937.31
2022-12-05T19:30:16.885Z,100939.00
2022-12-05T19:32:43.605Z,100934.63
2022-12-05T19:35:10.741Z,100930.31
2022-12-05T19:37:37.445Z,100930.88
2022-12-05T19:40:06.656Z,100935.13
2022-12-05T19:42:33.355Z,100926.38
2022-12-05T19:45:04.620Z,100931.78
2022-12-05T19:47:34.764Z,100936.13
2022-12-05T19:50:01.632Z,100929.13
2022-12-05T19:52:28.504Z,100932.53
2022-12-05T19:54:55.195Z,100937.00
2022-12-05T19:57:22.732Z,100933.56
2022-12-05T19:59:49.516Z,100933.59
2022-12-05T20:02:16.431Z,100941.38
2022-12-05T20:04:43.355Z,100925.59
2022-12-05T20:07:10.031Z,100925.53
2022-12-05T20:09:37.678Z,100927.34
2022-12-05T20:12:04.754Z,100930.81
2022-12-05T20:14:31.562Z,100933.56
2022-12-05T20:16:58.328Z,100927.38
2022-12-05T20:19:25.129Z,100923.88
2022-12-05T20:21:51.941Z,100930.81
2022-12-05T20:24:18.675Z,100934.31
2022-12-05T20:26:45.435Z,100927.28
2022-12-05T20:29:12.268Z,100927.34
2022-12-05T20:31:40.773Z,100927.28
2022-12-05T20:34:11.515Z,100927.34
2022-12-05T20:36:38.297Z,100924.81
2022-12-05T20:39:07.585Z,100922.97
2022-12-05T20:41:34.443Z,100929.13
2022-12-05T20:44:04.990Z,100914.44
2022-12-05T20:46:37.626Z,100911.09
2022-12-05T20:49:10.060Z,100916.28
2022-12-05T20:51:45.077Z,100914.63
2022-12-05T20:55:04.147Z,100911.25
2022-12-05T20:57:50.745Z,100902.47
2022-12-05T21:01:03.355Z,100908.66
2022-12-05T21:03:51.620Z,100902.47
2022-12-05T21:10:45.912Z,100907.66
2022-12-05T21:13:56.615Z,100905.94
2022-12-05T21:21:11.583Z,100897.28
2022-12-05T21:28:16.177Z,100903.72
2022-12-05T21:31:34.585Z,100895.75
2022-12-05T21:34:41.661Z,100900.06
2022-12-05T21:38:00.407Z,100897.31
2022-12-05T21:44:04.960Z,100904.31
2022-12-05T21:46:54.818Z,100902.59
2022-12-05T21:49:48.044Z,100903.50
2022-12-05T21:52:20.950Z,100908.63
2022-12-05T21:54:54.906Z,100912.09
2022-12-05T21:57:50.903Z,100905.22
2022-12-05T22:00:37.385Z,100901.53
2022-12-05T22:03:25.849Z,100904.44
2022-12-05T22:06:43.668Z,100900.00
2022-12-05T22:10:16.440Z,100901.09
2022-12-05T22:13:32.647Z,100902.88
2022-12-05T22:16:47.028Z,100895.94
2022-12-05T22:20:14.508Z,100907.47
2022-12-05T22:23:15.307Z,100902.31
2022-12-05T22:26:37.443Z,100898.91
2022-12-05T22:29:35.856Z,100890.97
2022-12-05T22:33:05.368Z,100896.25
2022-12-05T22:36:07.854Z,100891.88
2022-12-05T22:39:16.095Z,100888.75
2022-12-05T22:42:19.040Z,100886.25
2022-12-05T22:45:12.981Z,100880.19
2022-12-05T22:47:49.184Z,100872.09
2022-12-05T22:58:53.138Z,100864.50
2022-12-05T23:08:40.029Z,100861.94
2022-12-05T23:11:35.176Z,100861.69
2022-12-05T23:14:20.053Z,100853.16
2022-12-05T23:17:42.026Z,100842.81
2022-12-05T23:20:39.037Z,100848.34
2022-12-05T23:23:48.725Z,100843.47
2022-12-05T23:30:25.204Z,100831.13
2022-12-05T23:33:51.439Z,100832.56
2022-12-05T23:37:16.202Z,100833.31
2022-12-05T23:40:51.792Z,100823.56
2022-12-05T23:44:12.291Z,100824.81
2022-12-05T23:47:10.259Z,100822.81
2022-12-05T23:49:44.711Z,100826.31
2022-12-05T23:56:08.040Z,100830.75
2022-12-05T23:59:51.406Z,100831.50
